Time;durP1;ratioP1;P1;durP2;ratioP2;P2;SDS_P1;SDS_P2;PMS_P1;PMS_P2;Temp;Humidity;BMP_temperature;BMP_pressure;BME280_temperature;BME280_humidity;BME280_pressure;Samples;Min_cycle;Max_cycle;Signal;HPM_P1;HPM_P2
2022/07/09 00:00:00;;;;;;;502.02;455.75;;;;;;;22.39;78.49;99296.78;342457;28;1146;-78
2022/07/09 00:00:11;;;;;;;500.20;453.88;;;;;;;22.38;78.57;99298.63;342466;28;1513;-78
2022/07/09 00:00:21;;;;;;;499.02;452.88;;;;;;;22.38;78.32;99289.78;341131;28;995;-77
2022/07/09 00:00:32;;;;;;;495.43;449.50;;;;;;;22.37;78.51;99293.44;341170;29;1867;-77
2022/07/09 00:00:42;;;;;;;503.95;457.88;;;;;;;22.37;78.88;99293.44;341230;29;747;-77
2022/07/09 00:00:54;;;;;;;504.13;458.03;;;;;;;22.37;78.72;99293.44;341338;29;972;-78
2022/07/09 00:01:04;;;;;;;501.13;455.20;;;;;;;22.36;78.48;99287.25;341705;28;2266;-77
2022/07/09 00:01:15;;;;;;;499.37;453.60;;;;;;;22.38;78.76;99295.09;340850;28;4791;-77
2022/07/09 00:01:25;;;;;;;504.02;458.10;;;;;;;22.38;78.69;99292.44;341860;28;4995;-78
2022/07/09 00:01:36;;;;;;;507.90;461.53;;;;;;;22.39;78.21;99291.47;342613;28;819;-77
2022/07/09 00:01:47;;;;;;;502.67;456.52;;;;;;;22.39;78.89;99291.47;343372;28;4857;-76
2022/07/09 00:01:57;;;;;;;497.02;451.33;;;;;;;22.39;79.00;99283.47;341593;28;1205;-76
2022/07/09 00:02:07;;;;;;;496.33;450.90;;;;;;;22.38;78.75;99279.94;343785;28;1308;-77
2022/07/09 00:02:18;;;;;;;498.70;453.05;;;;;;;22.38;79.09;99289.78;342506;28;1369;-77
2022/07/09 00:02:28;;;;;;;502.07;456.13;;;;;;;22.38;78.60;99289.78;341280;29;806;-77
2022/07/09 00:02:39;;;;;;;498.13;452.13;;;;;;;22.37;79.02;99282.75;341987;28;1049;-77
2022/07/09 00:02:49;;;;;;;503.33;457.20;;;;;;;22.39;78.87;99286.13;342594;28;844;-77
2022/07/09 00:02:59;;;;;;;506.17;460.00;;;;;;;22.39;79.21;99291.47;342493;28;1123;-77
2022/07/09 00:03:10;;;;;;;509.45;463.30;;;;;;;22.37;78.96;99283.59;339593;29;4533;-77
2022/07/09 00:03:20;;;;;;;500.30;454.57;;;;;;;22.38;79.07;99281.78;340652;28;3624;-77
2022/07/09 00:03:31;;;;;;;494.83;449.20;;;;;;;22.37;79.36;99294.25;342493;28;1702;-77
2022/07/09 00:03:41;;;;;;;495.93;449.87;;;;;;;22.37;79.29;99288.94;342498;28;1281;-78
2022/07/09 00:03:52;;;;;;;510.37;463.80;;;;;;;22.37;79.01;99282.75;341457;29;968;-75
2022/07/09 00:04:02;;;;;;;515.00;468.35;;;;;;;22.37;79.00;99278.28;342299;28;1301;-77
2022/07/09 00:04:12;;;;;;;513.10;466.77;;;;;;;22.37;78.90;99282.75;341153;28;1201;-76
2022/07/09 00:04:23;;;;;;;504.88;458.73;;;;;;;22.35;79.55;99287.41;342525;28;1302;-76
2022/07/09 00:04:33;;;;;;;501.60;455.57;;;;;;;22.32;79.38;99285.03;342682;28;786;-76
2022/07/09 00:04:44;;;;;;;501.45;455.52;;;;;;;22.32;79.67;99283.19;341164;28;1193;-76
2022/07/09 00:04:54;;;;;;;504.87;458.90;;;;;;;22.31;79.34;99280.66;341217;29;1183;-76
2022/07/09 00:05:05;;;;;;;505.23;459.17;;;;;;;22.32;79.43;99285.03;339970;29;1305;-76
2022/07/09 00:05:15;;;;;;;506.00;459.88;;;;;;;22.32;79.19;99285.03;337872;29;4939;-76
2022/07/09 00:05:25;;;;;;;503.38;457.25;;;;;;;22.33;79.70;99289.38;341941;28;3223;-76
2022/07/09 00:05:36;;;;;;;502.80;456.60;;;;;;;22.30;79.74;99276.31;342405;28;916;-77
2022/07/09 00:05:46;;;;;;;503.35;457.02;;;;;;;22.32;79.26;99283.19;341964;28;2915;-76
2022/07/09 00:05:57;;;;;;;503.50;457.07;;;;;;;22.33;79.19;99286.69;341712;28;727;-76
2022/07/09 00:06:07;;;;;;;502.90;456.80;;;;;;;22.34;79.41;99285.72;341130;29;1410;-77
2022/07/09 00:06:18;;;;;;;501.27;455.50;;;;;;;22.35;79.34;99287.41;339888;29;1204;-76
2022/07/09 00:06:29;;;;;;;499.73;454.10;;;;;;;22.34;79.62;99283.88;342783;28;916;-76
2022/07/09 00:06:40;;;;;;;491.45;446.00;;;;;;;22.35;79.16;99279.41;341211;28;1494;-77
2022/07/09 00:06:50;;;;;;;491.83;446.33;;;;;;;22.36;79.07;99278.41;341285;29;934;-77
2022/07/09 00:07:01;;;;;;;496.60;450.92;;;;;;;22.33;79.53;99281.38;343729;28;1540;-76
2022/07/09 00:07:11;;;;;;;501.30;455.55;;;;;;;22.31;79.25;99289.50;341078;28;3569;-76
2022/07/09 00:07:22;;;;;;;502.27;456.33;;;;;;;22.29;78.92;99282.66;341621;28;2833;-77
2022/07/09 00:07:32;;;;;;;504.17;458.08;;;;;;;22.29;79.75;99279.97;341242;28;1325;-78
2022/07/09 00:07:43;;;;;;;508.00;461.43;;;;;;;22.28;79.59;99278.28;342314;28;2731;-76
2022/07/09 00:07:53;;;;;;;504.70;458.17;;;;;;;22.28;79.58;99281.81;342210;28;1476;-77
2022/07/09 00:08:04;;;;;;;500.80;454.57;;;;;;;22.28;79.70;99279.13;341213;29;889;-77
2022/07/09 00:08:15;;;;;;;498.67;452.75;;;;;;;22.26;79.33;99285.59;341248;29;1376;-77
2022/07/09 00:08:26;;;;;;;501.80;455.85;;;;;;;22.25;79.67;99274.09;343593;28;1399;-77
2022/07/09 00:08:36;;;;;;;495.52;449.83;;;;;;;22.24;79.57;99275.06;342341;28;1575;-78
2022/07/09 00:08:47;;;;;;;495.47;449.60;;;;;;;22.28;79.80;99278.28;339890;28;1209;-77
2022/07/09 00:08:58;;;;;;;494.38;448.58;;;;;;;22.28;79.66;99273.81;342777;28;1578;-77
2022/07/09 00:09:08;;;;;;;503.35;457.33;;;;;;;22.30;79.64;99282.50;341904;28;3430;-77
2022/07/09 00:09:18;;;;;;;510.37;464.17;;;;;;;22.31;79.80;99280.66;340459;28;4924;-78
2022/07/09 00:09:29;;;;;;;510.27;464.00;;;;;;;22.29;79.82;99274.66;339489;29;2150;-77
2022/07/09 00:09:39;;;;;;;505.83;459.60;;;;;;;22.28;79.57;99278.28;339736;29;1731;-76
2022/07/09 00:09:51;;;;;;;505.83;459.67;;;;;;;22.30;79.80;99276.31;342305;28;3287;-77
2022/07/09 00:10:01;;;;;;;507.95;461.98;;;;;;;22.30;80.07;99276.31;342765;28;1105;-77
2022/07/09 00:10:13;;;;;;;507.35;461.42;;;;;;;22.30;79.77;99277.16;342183;28;2107;-77
2022/07/09 00:10:23;;;;;;;504.88;459.02;;;;;;;22.29;79.72;99285.31;341265;28;1364;-77
2022/07/09 00:10:34;;;;;;;507.42;461.38;;;;;;;22.29;79.91;99274.66;341050;29;920;-78
2022/07/09 00:10:44;;;;;;;511.63;465.70;;;;;;;22.29;80.14;99274.66;341273;28;1366;-77
2022/07/09 00:10:54;;;;;;;508.50;462.43;;;;;;;22.30;79.90;99281.66;342580;28;1625;-77
2022/07/09 00:11:05;;;;;;;507.80;461.65;;;;;;;22.31;80.24;99272.66;342022;28;937;-76
2022/07/09 00:11:15;;;;;;;506.20;460.03;;;;;;;22.31;79.94;99275.34;339091;29;3540;-76
2022/07/09 00:11:26;;;;;;;506.08;460.02;;;;;;;22.30;80.26;99281.66;342260;28;2893;-77
2022/07/09 00:11:36;;;;;;;507.30;461.07;;;;;;;22.31;80.38;99275.34;341296;28;1535;-78
2022/07/09 00:11:47;;;;;;;503.67;457.55;;;;;;;22.26;80.52;99274.94;340778;29;3316;-77
2022/07/09 00:11:57;;;;;;;503.63;457.37;;;;;;;22.28;80.34;99273.81;343103;28;860;-77
2022/07/09 00:12:08;;;;;;;499.23;453.05;;;;;;;22.27;80.33;99276.63;346531;28;1039;-77
2022/07/09 00:12:19;;;;;;;499.75;453.30;;;;;;;22.24;80.34;99275.91;339799;29;1420;-77
2022/07/09 00:12:29;;;;;;;501.30;454.87;;;;;;;22.23;79.98;99270.72;341229;28;1354;-77
2022/07/09 00:12:39;;;;;;;508.05;461.73;;;;;;;22.22;80.40;99272.56;341898;28;1298;-77
2022/07/09 00:12:50;;;;;;;512.00;465.63;;;;;;;22.21;80.10;99270.88;341097;28;1185;-77
2022/07/09 00:13:00;;;;;;;516.70;470.23;;;;;;;22.22;80.11;99275.22;341655;28;1432;-77
2022/07/09 00:13:11;;;;;;;512.47;466.03;;;;;;;22.24;80.23;99275.06;340568;28;4286;-75
2022/07/09 00:13:21;;;;;;;509.08;462.85;;;;;;;22.24;79.96;99273.25;341623;28;3027;-75
2022/07/09 00:13:32;;;;;;;510.83;464.50;;;;;;;22.26;80.09;99269.59;342497;28;1228;-75
2022/07/09 00:13:42;;;;;;;512.80;466.23;;;;;;;22.26;80.28;99272.25;342429;28;1764;-75
2022/07/09 00:13:53;;;;;;;511.17;464.70;;;;;;;22.21;80.18;99273.53;341219;29;3472;-75
2022/07/09 00:14:03;;;;;;;505.50;459.48;;;;;;;22.18;80.29;99273.81;341010;28;1963;-76
2022/07/09 00:14:13;;;;;;;510.40;464.33;;;;;;;22.18;80.33;99273.00;341637;28;2001;-77
2022/07/09 00:14:24;;;;;;;515.00;468.60;;;;;;;22.17;80.37;99272.16;341153;29;1451;-77
2022/07/09 00:14:34;;;;;;;514.15;468.00;;;;;;;22.16;80.09;99275.78;341220;28;1308;-77
2022/07/09 00:14:45;;;;;;;512.33;466.23;;;;;;;22.17;80.09;99271.31;342492;28;1242;-77
2022/07/09 00:14:55;;;;;;;508.13;462.33;;;;;;;22.19;80.14;99272.00;341072;28;1421;-78
2022/07/09 00:15:06;;;;;;;506.47;460.50;;;;;;;22.20;80.22;99274.53;339899;29;1501;-77
2022/07/09 00:15:18;;;;;;;505.08;459.15;;;;;;;22.18;80.22;99267.66;339473;28;4333;-78
2022/07/09 00:15:28;;;;;;;510.17;464.20;;;;;;;22.18;80.28;99273.00;341807;28;5479;-78
2022/07/09 00:15:39;;;;;;;518.93;472.27;;;;;;;22.13;80.32;99273.41;342300;28;2284;-77
2022/07/09 00:15:50;;;;;;;513.30;466.63;;;;;;;22.10;80.59;99270.19;342380;28;3038;-77
2022/07/09 00:16:00;;;;;;;510.15;463.27;;;;;;;22.09;80.19;99272.06;345138;28;1377;-77
2022/07/09 00:16:11;;;;;;;507.77;461.30;;;;;;;22.09;80.54;99274.72;344019;28;950;-78
2022/07/09 00:16:21;;;;;;;512.80;466.17;;;;;;;22.10;80.66;99271.03;341080;28;1204;-77
2022/07/09 00:16:31;;;;;;;511.40;464.83;;;;;;;22.11;80.27;99267.38;342483;28;1300;-76
2022/07/09 00:16:42;;;;;;;511.50;465.08;;;;;;;22.12;80.60;99274.41;343807;28;1248;-77
2022/07/09 00:16:52;;;;;;;509.33;463.00;;;;;;;22.13;80.35;99270.75;343876;28;1396;-77
2022/07/09 00:17:03;;;;;;;513.88;467.77;;;;;;;22.16;80.42;99269.63;341192;29;1504;-76
2022/07/09 00:17:13;;;;;;;513.00;467.00;;;;;;;22.15;80.31;99268.78;339500;28;3550;-77
2022/07/09 00:17:25;;;;;;;520.88;474.48;;;;;;;22.16;80.45;99274.94;341318;28;5006;-77
2022/07/09 00:17:36;;;;;;;526.38;479.30;;;;;;;22.16;80.49;99269.63;340047;29;1826;-77
2022/07/09 00:17:46;;;;;;;526.73;479.57;;;;;;;22.16;81.11;99273.13;343584;28;5132;-77
2022/07/09 00:17:56;;;;;;;528.70;481.57;;;;;;;22.16;80.92;99270.47;344749;28;1321;-76
2022/07/09 00:18:07;;;;;;;526.43;479.80;;;;;;;22.14;80.90;99269.75;342477;28;1416;-77
2022/07/09 00:18:17;;;;;;;520.70;474.30;;;;;;;22.14;80.68;99266.25;341247;29;873;-77
2022/07/09 00:18:28;;;;;;;515.70;469.52;;;;;;;22.12;80.59;99269.06;343929;28;1413;-77
2022/07/09 00:18:38;;;;;;;514.40;468.27;;;;;;;22.14;80.61;99267.09;342556;28;852;-76
2022/07/09 00:18:49;;;;;;;522.50;476.08;;;;;;;22.13;80.59;99270.75;339941;29;982;-76
2022/07/09 00:18:59;;;;;;;526.30;479.80;;;;;;;22.13;80.70;99276.09;341845;28;1482;-76
2022/07/09 00:19:09;;;;;;;525.83;479.35;;;;;;;22.10;80.83;99271.03;340550;28;2775;-76
2022/07/09 00:19:20;;;;;;;526.90;480.50;;;;;;;22.12;81.01;99268.22;339495;28;4863;-77
2022/07/09 00:19:30;;;;;;;522.70;476.33;;;;;;;22.12;80.83;99274.41;341045;29;2711;-77
2022/07/09 00:19:41;;;;;;;529.53;482.80;;;;;;;22.14;80.54;99271.59;343426;28;2604;-76
2022/07/09 00:19:51;;;;;;;528.57;481.87;;;;;;;22.12;80.63;99268.22;344301;28;5215;-76
2022/07/09 00:20:04;;;;;;;532.47;485.80;;;;;;;22.10;80.96;99273.69;345138;28;1039;-76
2022/07/09 00:20:15;;;;;;;526.88;480.75;;;;;;;22.11;80.84;99267.38;341115;28;1287;-76
2022/07/09 00:20:25;;;;;;;520.85;474.95;;;;;;;22.13;81.07;99275.25;342448;28;1276;-76
2022/07/09 00:20:36;;;;;;;517.60;471.50;;;;;;;22.10;80.84;99271.03;342058;28;2106;-77
2022/07/09 00:20:46;;;;;;;516.10;469.83;;;;;;;22.09;80.97;99274.72;341233;28;1181;-77
2022/07/09 00:20:56;;;;;;;517.38;470.98;;;;;;;22.07;80.96;99268.69;343883;28;921;-77
2022/07/09 00:21:07;;;;;;;520.40;473.93;;;;;;;22.09;81.25;99272.06;341546;28;1833;-76
2022/07/09 00:21:17;;;;;;;527.85;481.20;;;;;;;22.10;80.92;99281.69;342274;28;4069;-77
2022/07/09 00:21:28;;;;;;;535.00;488.20;;;;;;;22.06;81.07;99267.00;340678;28;5099;-76
2022/07/09 00:21:38;;;;;;;532.08;485.27;;;;;;;22.08;80.86;99274.88;342327;28;1781;-76
2022/07/09 00:21:49;;;;;;;528.20;481.50;;;;;;;22.08;80.65;99273.03;339890;29;3056;-76
2022/07/09 00:21:59;;;;;;;529.97;483.15;;;;;;;22.10;80.93;99275.53;340606;29;1316;-76
2022/07/09 00:22:10;;;;;;;534.17;487.33;;;;;;;22.10;81.25;99276.38;341249;28;802;-77
2022/07/09 00:22:20;;;;;;;538.67;491.73;;;;;;;22.09;81.23;99274.72;343701;28;1227;-77
2022/07/09 00:22:34;;;;;;;538.07;491.43;;;;;;;22.08;81.33;99269.53;345325;28;1259;-77
2022/07/09 00:22:44;;;;;;;531.42;484.92;;;;;;;22.09;81.32;99274.72;341280;29;949;-77
2022/07/09 00:22:55;;;;;;;531.37;484.90;;;;;;;22.10;81.12;99281.69;342426;28;923;-77
2022/07/09 00:23:05;;;;;;;527.05;480.73;;;;;;;22.07;81.15;99271.34;343906;28;1169;-77
2022/07/09 00:23:15;;;;;;;528.77;482.43;;;;;;;22.07;81.75;99276.69;343209;28;4783;-77
2022/07/09 00:23:26;;;;;;;534.42;488.02;;;;;;;22.06;81.55;99274.16;343130;28;2752;-77
2022/07/09 00:23:36;;;;;;;545.80;498.83;;;;;;;22.06;81.73;99279.50;341268;29;1456;-77
2022/07/09 00:23:46;;;;;;;542.37;495.37;;;;;;;22.06;81.65;99277.66;341072;29;2640;-77
2022/07/09 00:23:57;;;;;;;544.20;497.17;;;;;;;22.06;81.44;99269.66;339847;29;928;-77
2022/07/09 00:24:07;;;;;;;537.30;490.57;;;;;;;22.10;82.02;99276.38;341190;29;1214;-77
2022/07/09 00:24:18;;;;;;;543.78;497.02;;;;;;;22.10;81.74;99276.38;343846;28;1433;-77
2022/07/09 00:24:28;;;;;;;542.73;495.97;;;;;;;22.07;81.85;99276.69;342520;28;1189;-77
2022/07/09 00:24:39;;;;;;;546.25;499.52;;;;;;;22.07;81.63;99275.84;341321;29;801;-76
2022/07/09 00:24:49;;;;;;;545.33;498.43;;;;;;;22.05;82.11;99273.31;341157;29;1190;-77
2022/07/09 00:25:00;;;;;;;549.20;502.13;;;;;;;22.04;82.18;99276.97;341646;28;1533;-77
2022/07/09 00:25:10;;;;;;;555.75;508.52;;;;;;;22.00;82.42;99270.22;339413;29;2755;-76
2022/07/09 00:25:21;;;;;;;561.75;514.42;;;;;;;21.97;82.44;99275.81;341523;28;4935;-76
2022/07/09 00:25:31;;;;;;;568.73;521.23;;;;;;;21.99;82.93;99273.88;341337;28;1968;-76
2022/07/09 00:25:42;;;;;;;576.15;528.13;;;;;;;21.98;82.24;99272.19;341229;28;1228;-76
2022/07/09 00:25:52;;;;;;;581.70;533.57;;;;;;;21.98;82.24;99277.50;339703;29;3121;-76
2022/07/09 00:26:03;;;;;;;579.40;531.45;;;;;;;22.00;82.69;99274.69;339870;29;859;-78
2022/07/09 00:26:13;;;;;;;568.73;521.20;;;;;;;21.97;82.64;99272.31;341249;29;1051;-77
2022/07/09 00:26:24;;;;;;;563.30;515.90;;;;;;;21.97;82.64;99275.81;341247;29;1250;-77
2022/07/09 00:26:34;;;;;;;569.10;521.67;;;;;;;21.96;82.93;99275.97;341214;29;948;-77
2022/07/09 00:26:44;;;;;;;576.17;528.58;;;;;;;21.97;82.95;99269.66;341277;28;888;-77
2022/07/09 00:26:55;;;;;;;575.43;527.83;;;;;;;21.97;82.85;99273.16;339830;29;1491;-77
2022/07/09 00:27:05;;;;;;;564.28;516.85;;;;;;;21.96;82.63;99274.16;339616;29;1495;-77
2022/07/09 00:27:16;;;;;;;557.93;510.63;;;;;;;21.99;82.71;99271.19;340448;28;5352;-76
2022/07/09 00:27:26;;;;;;;558.40;511.13;;;;;;;21.99;83.14;99273.03;344033;28;3444;-76
2022/07/09 00:27:36;;;;;;;568.90;521.27;;;;;;;22.00;82.68;99275.53;344980;28;1688;-77
2022/07/09 00:27:47;;;;;;;574.30;526.60;;;;;;;22.01;82.86;99271.06;345126;28;3095;-77
2022/07/09 00:27:57;;;;;;;581.75;533.97;;;;;;;22.00;83.28;99275.53;346163;28;880;-77
2022/07/09 00:28:08;;;;;;;581.83;534.23;;;;;;;22.02;83.15;99273.59;342565;28;883;-78
2022/07/09 00:28:18;;;;;;;588.15;540.45;;;;;;;22.04;82.96;99274.31;342468;28;1470;-77
2022/07/09 00:28:29;;;;;;;586.00;538.30;;;;;;;22.04;83.03;99273.47;342662;28;798;-77
2022/07/09 00:28:39;;;;;;;587.30;539.55;;;;;;;22.03;83.32;99274.44;339833;29;1070;-78
2022/07/09 00:28:50;;;;;;;582.97;535.13;;;;;;;22.04;83.48;99276.97;342485;28;1197;-77
2022/07/09 00:29:00;;;;;;;583.40;535.53;;;;;;;22.04;83.56;99271.63;343731;28;1487;-77
2022/07/09 00:29:10;;;;;;;585.60;537.73;;;;;;;22.05;82.91;99278.66;342774;28;3585;-77
2022/07/09 00:29:21;;;;;;;586.85;538.88;;;;;;;22.06;83.16;99277.66;341171;28;2438;-77
2022/07/09 00:29:31;;;;;;;599.20;550.90;;;;;;;22.05;83.37;99269.81;342394;28;927;-77
2022/07/09 00:29:42;;;;;;;599.92;551.50;;;;;;;22.05;83.01;99273.31;342118;28;2528;-77
2022/07/09 00:29:52;;;;;;;597.33;549.03;;;;;;;22.05;83.67;99273.31;342284;28;2946;-77
2022/07/09 00:30:03;;;;;;;595.33;547.07;;;;;;;22.06;83.48;99275.00;342443;28;1069;-78
2022/07/09 00:30:13;;;;;;;597.08;548.92;;;;;;;22.07;83.71;99273.19;343807;28;1214;-77
2022/07/09 00:30:24;;;;;;;601.80;553.58;;;;;;;22.06;83.18;99277.66;343630;28;1304;-77
2022/07/09 00:30:34;;;;;;;602.87;554.77;;;;;;;22.09;83.82;99280.06;343758;28;1952;-77
2022/07/09 00:30:44;;;;;;;597.87;549.97;;;;;;;22.10;83.46;99273.69;341200;29;932;-77
2022/07/09 00:30:55;;;;;;;593.33;545.47;;;;;;;22.11;83.79;99277.22;339820;28;1548;-77
2022/07/09 00:31:05;;;;;;;589.33;541.53;;;;;;;22.11;83.77;99279.88;339860;29;1260;-78
2022/07/09 00:31:16;;;;;;;593.83;545.95;;;;;;;22.13;83.35;99281.41;339101;28;4695;-77
2022/07/09 00:31:26;;;;;;;589.50;541.63;;;;;;;22.12;83.32;99278.88;340982;29;2454;-76
2022/07/09 00:31:36;;;;;;;588.08;539.97;;;;;;;22.12;83.51;99274.41;341063;28;1834;-76
2022/07/09 00:31:47;;;;;;;584.37;536.47;;;;;;;22.11;83.33;99271.88;340528;28;1969;-76
2022/07/09 00:31:57;;;;;;;592.17;544.07;;;;;;;22.11;83.27;99278.06;340847;28;1544;-76
2022/07/09 00:32:08;;;;;;;593.37;545.57;;;;;;;22.10;83.25;99281.69;341048;28;4763;-76
2022/07/09 00:32:18;;;;;;;596.07;547.90;;;;;;;22.09;83.93;99274.72;342304;28;3133;-76
2022/07/09 00:32:28;;;;;;;594.53;546.53;;;;;;;22.08;83.92;99278.38;343858;28;1537;-76
2022/07/09 00:32:39;;;;;;;593.13;545.17;;;;;;;22.06;83.61;99267.00;341227;29;951;-76
2022/07/09 00:32:49;;;;;;;595.63;547.50;;;;;;;22.06;83.37;99275.00;342611;28;837;-76
2022/07/09 00:33:00;;;;;;;596.50;548.27;;;;;;;22.06;83.42;99268.84;342497;28;960;-76
2022/07/09 00:33:10;;;;;;;600.72;552.40;;;;;;;22.06;83.63;99269.66;341427;28;4130;-76
2022/07/09 00:33:21;;;;;;;598.40;550.23;;;;;;;22.06;83.69;99267.00;338468;29;3428;-76
2022/07/09 00:33:31;;;;;;;598.30;550.23;;;;;;;22.08;83.53;99272.19;338567;29;1297;-76
2022/07/09 00:33:41;;;;;;;598.40;550.03;;;;;;;22.08;83.33;99272.19;337574;29;2083;-77
2022/07/09 00:33:52;;;;;;;600.50;552.13;;;;;;;22.05;83.29;99273.31;338382;29;2736;-77
2022/07/09 00:34:03;;;;;;;596.63;548.45;;;;;;;22.03;83.18;99264.63;342620;28;1380;-77
2022/07/09 00:34:13;;;;;;;594.72;546.63;;;;;;;22.05;83.59;99270.66;341155;29;1280;-77
2022/07/09 00:34:24;;;;;;;594.97;546.87;;;;;;;22.05;83.58;99268.00;339853;29;1002;-77
2022/07/09 00:34:34;;;;;;;597.17;548.97;;;;;;;22.04;83.46;99266.31;341254;29;880;-77
2022/07/09 00:34:44;;;;;;;586.90;539.07;;;;;;;22.02;83.65;99270.94;341244;29;872;-77
2022/07/09 00:34:55;;;;;;;584.63;536.80;;;;;;;22.01;83.64;99271.06;340003;29;1457;-77
2022/07/09 00:35:06;;;;;;;577.72;530.15;;;;;;;22.02;83.34;99267.44;341067;28;1747;-77
2022/07/09 00:35:16;;;;;;;581.58;534.00;;;;;;;22.01;83.34;99268.38;337608;29;4313;-77
2022/07/09 00:35:27;;;;;;;584.60;536.97;;;;;;;22.01;83.29;99263.94;340237;29;3089;-77
2022/07/09 00:35:37;;;;;;;597.20;549.05;;;;;;;22.02;83.30;99264.78;343483;28;1687;-77
2022/07/09 00:35:47;;;;;;;602.93;554.53;;;;;;;22.02;83.84;99273.59;346389;28;1196;-77
2022/07/09 00:35:58;;;;;;;601.80;553.47;;;;;;;22.01;83.81;99271.06;346642;28;844;-77
2022/07/09 00:36:08;;;;;;;590.93;543.13;;;;;;;22.01;83.62;99271.06;343863;28;884;-77
2022/07/09 00:36:19;;;;;;;589.05;541.30;;;;;;;21.99;83.93;99268.53;343906;28;817;-77
2022/07/09 00:36:29;;;;;;;586.90;539.07;;;;;;;21.98;83.56;99266.84;343790;28;947;-76
2022/07/09 00:36:39;;;;;;;593.50;545.53;;;;;;;21.98;83.98;99271.34;343892;28;782;-76
2022/07/09 00:36:50;;;;;;;592.00;543.97;;;;;;;21.99;83.83;99273.88;345248;28;868;-76
2022/07/09 00:37:01;;;;;;;594.80;546.60;;;;;;;22.00;83.97;99277.38;342369;28;1563;-76
2022/07/09 00:37:12;;;;;;;588.70;540.67;;;;;;;21.99;83.87;99268.53;337827;29;2732;-76
2022/07/09 00:37:22;;;;;;;591.00;543.03;;;;;;;22.01;83.83;99271.06;338566;29;5327;-76
2022/07/09 00:37:32;;;;;;;592.07;543.97;;;;;;;21.99;84.01;99265.88;339823;29;1909;-77
2022/07/09 00:37:43;;;;;;;598.55;550.13;;;;;;;22.01;83.65;99263.94;341328;28;1716;-77
2022/07/09 00:37:53;;;;;;;597.47;549.07;;;;;;;21.98;83.83;99266.84;342118;28;3221;-77
2022/07/09 00:38:03;;;;;;;596.33;548.25;;;;;;;21.97;83.96;99267.84;340765;29;1883;-77
2022/07/09 00:38:14;;;;;;;597.53;549.50;;;;;;;21.96;83.91;99268.81;341142;28;1668;-77
2022/07/09 00:38:24;;;;;;;595.53;547.57;;;;;;;21.97;84.06;99267.84;342556;28;1181;-77
2022/07/09 00:38:35;;;;;;;596.90;548.93;;;;;;;21.97;83.61;99267.84;341003;28;1233;-77
2022/07/09 00:38:45;;;;;;;598.73;550.67;;;;;;;21.97;84.04;99270.50;341246;29;930;-77
2022/07/09 00:38:56;;;;;;;600.15;551.97;;;;;;;21.98;83.93;99272.19;342507;28;1956;-77
2022/07/09 00:39:06;;;;;;;600.27;552.07;;;;;;;21.97;83.29;99270.50;342346;28;3549;-77
2022/07/09 00:39:16;;;;;;;595.92;548.03;;;;;;;21.97;84.23;99265.16;339149;29;5106;-77
2022/07/09 00:39:27;;;;;;;589.60;541.93;;;;;;;21.99;83.68;99265.03;340463;28;1694;-77
2022/07/09 00:39:37;;;;;;;588.97;541.13;;;;;;;21.99;84.16;99273.88;340930;29;1545;-77
2022/07/09 00:39:48;;;;;;;585.10;537.33;;;;;;;22.00;83.82;99270.22;340890;29;2734;-77
2022/07/09 00:39:58;;;;;;;592.22;544.22;;;;;;;22.01;84.23;99261.28;343081;28;1304;-77
2022/07/09 00:40:09;;;;;;;587.60;539.80;;;;;;;22.02;84.03;99272.78;342491;28;1203;-77
2022/07/09 00:40:20;;;;;;;591.65;543.83;;;;;;;22.01;84.04;99271.94;342435;28;1543;-77
2022/07/09 00:40:30;;;;;;;592.10;544.35;;;;;;;22.01;84.12;99261.28;341148;29;1861;-77
2022/07/09 00:40:41;;;;;;;598.67;550.93;;;;;;;22.02;83.83;99262.94;341127;29;1506;-77
2022/07/09 00:40:51;;;;;;;596.53;548.80;;;;;;;21.99;84.13;99263.19;341222;29;805;-77
2022/07/09 00:41:01;;;;;;;600.20;552.40;;;;;;;22.04;84.23;99266.31;343779;28;1284;-77
2022/07/09 00:41:12;;;;;;;598.97;551.07;;;;;;;22.04;84.26;99260.97;342424;28;3777;-77
2022/07/09 00:41:22;;;;;;;601.95;554.03;;;;;;;22.04;83.92;99260.97;340373;29;2661;-77
2022/07/09 00:41:33;;;;;;;603.43;555.37;;;;;;;22.04;84.13;99258.31;342610;28;936;-77
2022/07/09 00:41:43;;;;;;;607.10;558.85;;;;;;;22.05;84.27;99265.31;343766;28;1755;-77
2022/07/09 00:42:04;;;;;;;613.00;564.50;;;;;;;22.02;84.02;99262.94;345178;28;3424;-77
2022/07/09 00:42:14;;;;;;;614.40;566.30;;;;;;;22.02;83.98;99262.94;344956;28;1758;-77
2022/07/09 00:42:25;;;;;;;613.03;565.03;;;;;;;22.00;84.22;99262.22;343853;28;2046;-77
2022/07/09 00:42:35;;;;;;;614.50;566.25;;;;;;;22.00;84.25;99267.56;342503;28;1350;-77
2022/07/09 00:42:46;;;;;;;617.90;569.57;;;;;;;22.00;83.72;99259.56;342515;28;966;-77
2022/07/09 00:42:56;;;;;;;621.97;573.53;;;;;;;21.96;84.39;99260.81;341205;29;1451;-77
2022/07/09 00:43:19;;;;;;;629.03;580.33;;;;;;;21.90;84.30;99264.06;340836;29;1881;-77
2022/07/09 00:43:30;;;;;;;625.50;577.00;;;;;;;21.90;84.00;99264.91;342293;28;2681;-77
2022/07/09 00:43:50;;;;;;;634.35;585.65;;;;;;;21.90;84.37;99264.91;339694;29;2089;-77
2022/07/09 00:44:00;;;;;;;631.83;583.38;;;;;;;21.88;84.22;99260.69;340602;28;1055;-77
2022/07/09 00:44:11;;;;;;;630.92;582.35;;;;;;;21.86;84.24;99262.66;341109;29;1209;-77
2022/07/09 00:44:21;;;;;;;637.77;588.83;;;;;;;21.87;84.34;99259.00;339852;29;968;-77
2022/07/09 00:44:31;;;;;;;641.20;592.22;;;;;;;21.85;84.22;99256.50;339848;29;1276;-77
2022/07/09 00:44:42;;;;;;;638.23;589.67;;;;;;;21.88;84.49;99266.88;341278;29;1121;-77
2022/07/09 00:44:52;;;;;;;640.77;592.03;;;;;;;21.89;84.35;99257.03;341103;29;1552;-77
2022/07/09 00:45:03;;;;;;;639.00;590.30;;;;;;;21.88;84.49;99250.88;341367;28;1163;-77
2022/07/09 00:45:14;;;;;;;639.55;590.78;;;;;;;21.87;84.18;99264.34;342114;28;4187;-77
2022/07/09 00:45:24;;;;;;;639.43;590.67;;;;;;;21.86;84.36;99260.84;341707;28;3432;-77
2022/07/09 00:45:34;;;;;;;642.80;593.70;;;;;;;21.87;84.13;99264.34;345076;28;1342;-77
2022/07/09 00:45:45;;;;;;;646.57;597.40;;;;;;;21.84;84.10;99260.13;343150;28;2283;-77
2022/07/09 00:45:56;;;;;;;649.60;600.30;;;;;;;21.87;84.18;99267.00;341238;29;813;-77
2022/07/09 00:46:06;;;;;;;643.90;594.95;;;;;;;21.86;83.85;99258.16;342578;28;872;-77
2022/07/09 00:46:17;;;;;;;642.00;593.10;;;;;;;21.86;84.24;99260.84;342461;28;1283;-77
2022/07/09 00:46:27;;;;;;;638.08;589.45;;;;;;;21.90;83.88;99258.72;343990;28;923;-77
2022/07/09 00:46:38;;;;;;;641.63;592.93;;;;;;;21.90;84.25;99264.06;343804;28;1184;-77
2022/07/09 00:46:48;;;;;;;640.43;591.50;;;;;;;21.90;84.20;99259.56;345176;28;1172;-76
2022/07/09 00:46:58;;;;;;;647.30;597.92;;;;;;;21.89;83.94;99257.03;342406;28;1630;-77
2022/07/09 00:47:09;;;;;;;646.17;596.90;;;;;;;21.88;83.83;99258.03;340655;28;3543;-75
2022/07/09 00:47:19;;;;;;;649.75;600.65;;;;;;;21.88;84.23;99258.88;338122;29;4909;-76
2022/07/09 00:47:30;;;;;;;643.90;595.10;;;;;;;21.86;84.21;99263.50;342383;28;1540;-76
2022/07/09 00:47:40;;;;;;;646.53;597.42;;;;;;;21.87;84.10;99253.69;345236;28;896;-76
2022/07/09 00:47:50;;;;;;;644.70;595.40;;;;;;;21.82;84.20;99259.44;343780;28;2981;-76
2022/07/09 00:48:01;;;;;;;641.42;592.42;;;;;;;21.82;84.26;99263.94;342287;28;1990;-76
2022/07/09 00:48:12;;;;;;;638.23;589.40;;;;;;;21.85;84.26;99260.97;340077;29;1963;-76
2022/07/09 00:48:22;;;;;;;638.65;589.78;;;;;;;21.86;83.97;99257.34;341179;29;1074;-76
2022/07/09 00:48:33;;;;;;;642.47;593.47;;;;;;;21.87;84.28;99259.00;341113;29;1241;-76
2022/07/09 00:48:43;;;;;;;637.92;589.08;;;;;;;21.87;84.25;99259.00;341294;28;900;-76
2022/07/09 00:48:53;;;;;;;638.60;589.87;;;;;;;21.86;83.97;99260.00;342512;28;1330;-76